EDDR

Saarbrücken Airport

Saarbrücken, Germany
METAR EDDR 202350Z AUTO VRB01KT 9999 // SCT055/// 17/15 Q1021
Observed Flight Rules
Aug-20 @ 23:50 UTC (20 minutes ago) Visual Flight Rules
Wind Visibility Clouds
Variable at 1 knots 10,000+ meters
  • Scattered at 5,500' AGL
Temperatures Readings
Current 17°C / 63°F
Dewpoint 15°C / 59°F
Humidity 88%
Altimeter 30.15" Hg
Pressure 1021 hPa
Elevation 320
METAR EDDR 202350Z AUTO VRB01KT 9999 // SCT055/// 17/15 Q1021
Observed Flight Rules
Aug-20 @ 23:50 UTC
(20 minutes ago)
VFR
Wind Visibility
Variable at 1 knots 10,000+ meters
Clouds
  • Scattered at 5,500' AGL
Temperature Dewpoint
17°C / 63°F 15°C / 59°F
Humidity Altimeter Pressure
88% 30.15" Hg 1021 hPa